sensor_id;sensor_type;location;lat;lon;timestamp;P1;durP1;ratioP1;P2;durP2;ratioP2
19113;SDS011;9689;51.052;13.772;2023-08-24T00:03:51;7.90;;;3.88;;
19113;SDS011;9689;51.052;13.772;2023-08-24T00:08:52;8.07;;;3.92;;
19113;SDS011;9689;51.052;13.772;2023-08-24T00:13:53;8.18;;;4.43;;
19113;SDS011;9689;51.052;13.772;2023-08-24T00:18:55;5.15;;;3.88;;
19113;SDS011;9689;51.052;13.772;2023-08-24T00:23:56;8.27;;;4.25;;
19113;SDS011;9689;51.052;13.772;2023-08-24T00:28:56;9.27;;;4.60;;
19113;SDS011;9689;51.052;13.772;2023-08-24T00:33:59;8.18;;;4.28;;
19113;SDS011;9689;51.052;13.772;2023-08-24T00:38:59;7.75;;;3.85;;
19113;SDS011;9689;51.052;13.772;2023-08-24T00:44:00;9.13;;;4.10;;
19113;SDS011;9689;51.052;13.772;2023-08-24T00:49:04;7.47;;;3.60;;
19113;SDS011;9689;51.052;13.772;2023-08-24T00:54:05;7.55;;;4.00;;
19113;SDS011;9689;51.052;13.772;2023-08-24T00:59:06;6.00;;;3.78;;
19113;SDS011;9689;51.052;13.772;2023-08-24T01:04:09;8.98;;;4.13;;
19113;SDS011;9689;51.052;13.772;2023-08-24T01:09:10;9.60;;;3.65;;
19113;SDS011;9689;51.052;13.772;2023-08-24T01:14:14;8.77;;;3.88;;
19113;SDS011;9689;51.052;13.772;2023-08-24T01:19:29;9.32;;;4.05;;
19113;SDS011;9689;51.052;13.772;2023-08-24T01:24:38;7.70;;;4.13;;
19113;SDS011;9689;51.052;13.772;2023-08-24T01:29:46;7.20;;;4.05;;
19113;SDS011;9689;51.052;13.772;2023-08-24T01:34:48;7.20;;;3.90;;
19113;SDS011;9689;51.052;13.772;2023-08-24T01:39:50;5.10;;;3.97;;
19113;SDS011;9689;51.052;13.772;2023-08-24T01:45:01;9.73;;;4.18;;
19113;SDS011;9689;51.052;13.772;2023-08-24T01:50:06;5.75;;;4.00;;
19113;SDS011;9689;51.052;13.772;2023-08-24T01:55:08;5.93;;;3.97;;
19113;SDS011;9689;51.052;13.772;2023-08-24T02:00:11;4.90;;;3.88;;
19113;SDS011;9689;51.052;13.772;2023-08-24T02:05:12;6.68;;;3.78;;
19113;SDS011;9689;51.052;13.772;2023-08-24T02:10:13;7.60;;;3.47;;
19113;SDS011;9689;51.052;13.772;2023-08-24T02:15:15;10.05;;;3.92;;
19113;SDS011;9689;51.052;13.772;2023-08-24T02:20:16;5.28;;;4.30;;
19113;SDS011;9689;51.052;13.772;2023-08-24T02:25:17;7.55;;;4.03;;
19113;SDS011;9689;51.052;13.772;2023-08-24T02:30:19;10.57;;;4.70;;
19113;SDS011;9689;51.052;13.772;2023-08-24T02:35:21;8.45;;;4.30;;
19113;SDS011;9689;51.052;13.772;2023-08-24T02:40:22;7.78;;;4.40;;
19113;SDS011;9689;51.052;13.772;2023-08-24T02:45:24;7.45;;;4.15;;
19113;SDS011;9689;51.052;13.772;2023-08-24T02:50:25;11.05;;;4.40;;
19113;SDS011;9689;51.052;13.772;2023-08-24T02:55:26;5.70;;;4.18;;
19113;SDS011;9689;51.052;13.772;2023-08-24T03:00:28;8.90;;;4.20;;
19113;SDS011;9689;51.052;13.772;2023-08-24T03:05:29;15.30;;;4.68;;
19113;SDS011;9689;51.052;13.772;2023-08-24T03:10:29;6.38;;;4.00;;
19113;SDS011;9689;51.052;13.772;2023-08-24T03:15:33;6.00;;;4.40;;
19113;SDS011;9689;51.052;13.772;2023-08-24T03:20:37;8.90;;;4.80;;
19113;SDS011;9689;51.052;13.772;2023-08-24T03:25:39;15.50;;;5.07;;
19113;SDS011;9689;51.052;13.772;2023-08-24T03:30:46;7.20;;;4.35;;
19113;SDS011;9689;51.052;13.772;2023-08-24T03:35:48;9.10;;;4.97;;
19113;SDS011;9689;51.052;13.772;2023-08-24T03:40:51;7.45;;;4.50;;
19113;SDS011;9689;51.052;13.772;2023-08-24T03:45:53;11.02;;;5.10;;
19113;SDS011;9689;51.052;13.772;2023-08-24T03:50:54;7.72;;;5.40;;
19113;SDS011;9689;51.052;13.772;2023-08-24T03:55:55;7.90;;;4.28;;
19113;SDS011;9689;51.052;13.772;2023-08-24T04:00:57;9.27;;;4.72;;
19113;SDS011;9689;51.052;13.772;2023-08-24T04:05:58;7.38;;;4.47;;
19113;SDS011;9689;51.052;13.772;2023-08-24T04:11:01;10.65;;;4.57;;
19113;SDS011;9689;51.052;13.772;2023-08-24T04:16:04;8.48;;;4.65;;
19113;SDS011;9689;51.052;13.772;2023-08-24T04:21:05;8.27;;;5.00;;
19113;SDS011;9689;51.052;13.772;2023-08-24T04:26:06;9.80;;;4.43;;
19113;SDS011;9689;51.052;13.772;2023-08-24T04:31:08;10.55;;;4.95;;
19113;SDS011;9689;51.052;13.772;2023-08-24T04:36:09;5.68;;;4.85;;
19113;SDS011;9689;51.052;13.772;2023-08-24T04:41:10;7.57;;;4.78;;
19113;SDS011;9689;51.052;13.772;2023-08-24T04:46:13;7.28;;;4.95;;
19113;SDS011;9689;51.052;13.772;2023-08-24T04:51:13;12.15;;;6.40;;
19113;SDS011;9689;51.052;13.772;2023-08-24T04:56:14;12.45;;;5.45;;
19113;SDS011;9689;51.052;13.772;2023-08-24T05:01:19;16.05;;;4.90;;
19113;SDS011;9689;51.052;13.772;2023-08-24T05:06:20;8.85;;;4.70;;
19113;SDS011;9689;51.052;13.772;2023-08-24T05:11:22;10.38;;;5.20;;
19113;SDS011;9689;51.052;13.772;2023-08-24T05:16:26;8.73;;;5.10;;
19113;SDS011;9689;51.052;13.772;2023-08-24T05:21:28;16.17;;;5.13;;
19113;SDS011;9689;51.052;13.772;2023-08-24T05:26:29;8.27;;;4.40;;
19113;SDS011;9689;51.052;13.772;2023-08-24T05:31:31;7.10;;;4.53;;
19113;SDS011;9689;51.052;13.772;2023-08-24T05:36:32;6.57;;;4.75;;
19113;SDS011;9689;51.052;13.772;2023-08-24T05:41:32;9.05;;;5.22;;
19113;SDS011;9689;51.052;13.772;2023-08-24T05:46:35;9.27;;;4.88;;
19113;SDS011;9689;51.052;13.772;2023-08-24T05:51:36;12.32;;;4.40;;
19113;SDS011;9689;51.052;13.772;2023-08-24T05:56:36;9.23;;;5.13;;
19113;SDS011;9689;51.052;13.772;2023-08-24T06:01:38;12.77;;;5.10;;
19113;SDS011;9689;51.052;13.772;2023-08-24T06:06:40;6.20;;;4.10;;
19113;SDS011;9689;51.052;13.772;2023-08-24T06:11:41;11.48;;;4.70;;
19113;SDS011;9689;51.052;13.772;2023-08-24T06:16:43;8.93;;;3.97;;
19113;SDS011;9689;51.052;13.772;2023-08-24T06:21:44;7.72;;;3.80;;
19113;SDS011;9689;51.052;13.772;2023-08-24T06:26:45;8.95;;;4.15;;
19113;SDS011;9689;51.052;13.772;2023-08-24T06:31:47;5.22;;;3.78;;
19113;SDS011;9689;51.052;13.772;2023-08-24T06:36:47;5.68;;;3.58;;
19113;SDS011;9689;51.052;13.772;2023-08-24T06:41:50;9.35;;;4.70;;
19113;SDS011;9689;51.052;13.772;2023-08-24T06:46:58;9.77;;;4.13;;
19113;SDS011;9689;51.052;13.772;2023-08-24T06:52:01;11.77;;;3.63;;
19113;SDS011;9689;51.052;13.772;2023-08-24T06:57:02;5.25;;;3.33;;
19113;SDS011;9689;51.052;13.772;2023-08-24T07:02:06;5.97;;;3.58;;
19113;SDS011;9689;51.052;13.772;2023-08-24T07:07:07;7.20;;;3.72;;
19113;SDS011;9689;51.052;13.772;2023-08-24T07:12:09;7.40;;;3.30;;
19113;SDS011;9689;51.052;13.772;2023-08-24T07:17:11;5.40;;;3.50;;
19113;SDS011;9689;51.052;13.772;2023-08-24T07:22:12;11.68;;;3.95;;
19113;SDS011;9689;51.052;13.772;2023-08-24T07:27:12;4.70;;;3.28;;
19113;SDS011;9689;51.052;13.772;2023-08-24T07:32:15;9.00;;;3.50;;
19113;SDS011;9689;51.052;13.772;2023-08-24T07:37:16;5.10;;;3.42;;
19113;SDS011;9689;51.052;13.772;2023-08-24T07:42:19;9.48;;;3.33;;
19113;SDS011;9689;51.052;13.772;2023-08-24T07:47:21;8.50;;;3.72;;
19113;SDS011;9689;51.052;13.772;2023-08-24T07:52:22;7.88;;;3.28;;
19113;SDS011;9689;51.052;13.772;2023-08-24T07:57:26;4.68;;;3.10;;
19113;SDS011;9689;51.052;13.772;2023-08-24T08:02:28;4.07;;;2.95;;
19113;SDS011;9689;51.052;13.772;2023-08-24T08:07:29;4.50;;;2.75;;
19113;SDS011;9689;51.052;13.772;2023-08-24T08:12:30;6.18;;;2.72;;
19113;SDS011;9689;51.052;13.772;2023-08-24T08:17:33;8.00;;;3.20;;
19113;SDS011;9689;51.052;13.772;2023-08-24T08:22:33;5.65;;;2.67;;
19113;SDS011;9689;51.052;13.772;2023-08-24T08:27:37;5.88;;;3.08;;
19113;SDS011;9689;51.052;13.772;2023-08-24T08:32:40;4.32;;;2.70;;
19113;SDS011;9689;51.052;13.772;2023-08-24T08:37:41;3.30;;;2.45;;
19113;SDS011;9689;51.052;13.772;2023-08-24T08:42:42;5.72;;;2.60;;
19113;SDS011;9689;51.052;13.772;2023-08-24T08:47:44;4.32;;;2.92;;
19113;SDS011;9689;51.052;13.772;2023-08-24T08:52:45;6.20;;;2.75;;
19113;SDS011;9689;51.052;13.772;2023-08-24T08:57:47;7.78;;;2.55;;
19113;SDS011;9689;51.052;13.772;2023-08-24T09:02:51;4.13;;;2.35;;
19113;SDS011;9689;51.052;13.772;2023-08-24T09:07:53;3.75;;;2.60;;
19113;SDS011;9689;51.052;13.772;2023-08-24T09:12:55;4.90;;;2.35;;
19113;SDS011;9689;51.052;13.772;2023-08-24T09:17:57;7.50;;;2.40;;
19113;SDS011;9689;51.052;13.772;2023-08-24T09:22:59;8.82;;;2.20;;
19113;SDS011;9689;51.052;13.772;2023-08-24T09:28:01;6.53;;;2.53;;
19113;SDS011;9689;51.052;13.772;2023-08-24T09:33:10;3.78;;;2.33;;
19113;SDS011;9689;51.052;13.772;2023-08-24T09:38:17;6.50;;;2.30;;
19113;SDS011;9689;51.052;13.772;2023-08-24T09:43:18;6.53;;;2.10;;
19113;SDS011;9689;51.052;13.772;2023-08-24T09:48:21;8.20;;;2.20;;
19113;SDS011;9689;51.052;13.772;2023-08-24T09:53:26;4.20;;;2.60;;
19113;SDS011;9689;51.052;13.772;2023-08-24T09:58:32;5.30;;;3.08;;
19113;SDS011;9689;51.052;13.772;2023-08-24T10:03:35;10.65;;;4.32;;
19113;SDS011;9689;51.052;13.772;2023-08-24T10:08:43;5.35;;;2.47;;
19113;SDS011;9689;51.052;13.772;2023-08-24T10:13:47;4.25;;;2.20;;
19113;SDS011;9689;51.052;13.772;2023-08-24T10:18:54;3.80;;;2.35;;
19113;SDS011;9689;51.052;13.772;2023-08-24T10:23:56;4.18;;;2.20;;
19113;SDS011;9689;51.052;13.772;2023-08-24T10:28:57;4.80;;;2.30;;
19113;SDS011;9689;51.052;13.772;2023-08-24T10:34:04;6.50;;;2.83;;
19113;SDS011;9689;51.052;13.772;2023-08-24T10:39:06;4.05;;;2.17;;
19113;SDS011;9689;51.052;13.772;2023-08-24T10:44:07;3.05;;;2.08;;
19113;SDS011;9689;51.052;13.772;2023-08-24T10:49:20;5.15;;;2.25;;
19113;SDS011;9689;51.052;13.772;2023-08-24T10:54:29;7.38;;;2.30;;
19113;SDS011;9689;51.052;13.772;2023-08-24T10:59:34;4.38;;;2.72;;
19113;SDS011;9689;51.052;13.772;2023-08-24T11:05:06;4.18;;;2.50;;
19113;SDS011;9689;51.052;13.772;2023-08-24T11:10:11;2.75;;;1.88;;
19113;SDS011;9689;51.052;13.772;2023-08-24T11:15:13;7.05;;;2.75;;
19113;SDS011;9689;51.052;13.772;2023-08-24T11:20:32;4.45;;;2.17;;
19113;SDS011;9689;51.052;13.772;2023-08-24T11:25:35;4.43;;;2.35;;
19113;SDS011;9689;51.052;13.772;2023-08-24T11:30:36;4.63;;;2.45;;
19113;SDS011;9689;51.052;13.772;2023-08-24T11:35:38;6.47;;;2.20;;
19113;SDS011;9689;51.052;13.772;2023-08-24T11:40:39;6.25;;;2.50;;
19113;SDS011;9689;51.052;13.772;2023-08-24T11:45:40;3.28;;;2.08;;
19113;SDS011;9689;51.052;13.772;2023-08-24T11:50:43;6.35;;;2.25;;
19113;SDS011;9689;51.052;13.772;2023-08-24T11:55:44;6.00;;;2.15;;
19113;SDS011;9689;51.052;13.772;2023-08-24T12:01:04;6.35;;;2.22;;
19113;SDS011;9689;51.052;13.772;2023-08-24T12:06:11;3.67;;;1.95;;
19113;SDS011;9689;51.052;13.772;2023-08-24T12:11:13;4.43;;;2.40;;
19113;SDS011;9689;51.052;13.772;2023-08-24T12:16:17;4.65;;;2.00;;
19113;SDS011;9689;51.052;13.772;2023-08-24T12:21:20;4.40;;;2.40;;
19113;SDS011;9689;51.052;13.772;2023-08-24T12:26:21;2.65;;;2.13;;
19113;SDS011;9689;51.052;13.772;2023-08-24T12:31:25;5.38;;;2.72;;
19113;SDS011;9689;51.052;13.772;2023-08-24T12:36:28;3.80;;;2.20;;
19113;SDS011;9689;51.052;13.772;2023-08-24T12:41:29;4.75;;;2.50;;
19113;SDS011;9689;51.052;13.772;2023-08-24T12:46:30;4.97;;;2.20;;
19113;SDS011;9689;51.052;13.772;2023-08-24T12:51:32;4.80;;;2.50;;
19113;SDS011;9689;51.052;13.772;2023-08-24T12:56:33;4.05;;;2.25;;
19113;SDS011;9689;51.052;13.772;2023-08-24T13:01:34;7.95;;;2.42;;
19113;SDS011;9689;51.052;13.772;2023-08-24T13:06:36;8.88;;;2.15;;
19113;SDS011;9689;51.052;13.772;2023-08-24T13:11:37;5.13;;;2.65;;
19113;SDS011;9689;51.052;13.772;2023-08-24T13:16:38;9.05;;;3.47;;
19113;SDS011;9689;51.052;13.772;2023-08-24T13:21:40;4.07;;;2.50;;
19113;SDS011;9689;51.052;13.772;2023-08-24T13:26:41;5.32;;;2.65;;
19113;SDS011;9689;51.052;13.772;2023-08-24T13:31:42;4.25;;;2.70;;
19113;SDS011;9689;51.052;13.772;2023-08-24T13:36:44;5.47;;;2.78;;
19113;SDS011;9689;51.052;13.772;2023-08-24T13:41:45;3.83;;;2.33;;
19113;SDS011;9689;51.052;13.772;2023-08-24T13:46:45;8.35;;;2.67;;
19113;SDS011;9689;51.052;13.772;2023-08-24T13:51:48;7.00;;;2.50;;
19113;SDS011;9689;51.052;13.772;2023-08-24T13:56:49;7.10;;;2.83;;
19113;SDS011;9689;51.052;13.772;2023-08-24T14:01:49;4.72;;;2.30;;
19113;SDS011;9689;51.052;13.772;2023-08-24T14:06:52;3.58;;;2.50;;
19113;SDS011;9689;51.052;13.772;2023-08-24T14:11:52;8.85;;;2.70;;
19113;SDS011;9689;51.052;13.772;2023-08-24T14:16:53;5.50;;;3.00;;
19113;SDS011;9689;51.052;13.772;2023-08-24T14:21:57;6.80;;;2.90;;
19113;SDS011;9689;51.052;13.772;2023-08-24T14:26:58;5.07;;;2.83;;
19113;SDS011;9689;51.052;13.772;2023-08-24T14:31:59;4.10;;;2.30;;
19113;SDS011;9689;51.052;13.772;2023-08-24T14:37:01;5.72;;;2.67;;
19113;SDS011;9689;51.052;13.772;2023-08-24T14:42:02;10.27;;;2.83;;
19113;SDS011;9689;51.052;13.772;2023-08-24T14:47:04;8.45;;;2.80;;
19113;SDS011;9689;51.052;13.772;2023-08-24T14:52:06;9.63;;;2.92;;
19113;SDS011;9689;51.052;13.772;2023-08-24T14:57:07;6.47;;;3.00;;
19113;SDS011;9689;51.052;13.772;2023-08-24T15:02:08;5.90;;;2.97;;
19113;SDS011;9689;51.052;13.772;2023-08-24T15:07:10;6.57;;;3.30;;
19113;SDS011;9689;51.052;13.772;2023-08-24T15:12:11;3.88;;;2.47;;
19113;SDS011;9689;51.052;13.772;2023-08-24T15:17:18;5.90;;;3.25;;
19113;SDS011;9689;51.052;13.772;2023-08-24T15:22:20;7.63;;;3.10;;
19113;SDS011;9689;51.052;13.772;2023-08-24T15:27:21;7.43;;;2.97;;
19113;SDS011;9689;51.052;13.772;2023-08-24T15:32:22;9.20;;;3.50;;
19113;SDS011;9689;51.052;13.772;2023-08-24T15:37:24;5.10;;;2.50;;
19113;SDS011;9689;51.052;13.772;2023-08-24T15:42:25;5.97;;;2.78;;
19113;SDS011;9689;51.052;13.772;2023-08-24T15:47:26;5.72;;;2.95;;
19113;SDS011;9689;51.052;13.772;2023-08-24T15:52:29;3.67;;;2.47;;
19113;SDS011;9689;51.052;13.772;2023-08-24T15:57:29;6.10;;;2.80;;
19113;SDS011;9689;51.052;13.772;2023-08-24T16:02:30;7.15;;;3.40;;
19113;SDS011;9689;51.052;13.772;2023-08-24T16:07:32;3.22;;;2.72;;
19113;SDS011;9689;51.052;13.772;2023-08-24T16:12:35;5.63;;;2.88;;
19113;SDS011;9689;51.052;13.772;2023-08-24T16:17:36;3.72;;;2.58;;
19113;SDS011;9689;51.052;13.772;2023-08-24T16:22:38;7.07;;;3.33;;
19113;SDS011;9689;51.052;13.772;2023-08-24T16:27:39;4.53;;;2.50;;
19113;SDS011;9689;51.052;13.772;2023-08-24T16:32:40;9.07;;;2.80;;
19113;SDS011;9689;51.052;13.772;2023-08-24T16:37:45;5.30;;;2.88;;
19113;SDS011;9689;51.052;13.772;2023-08-24T16:42:45;6.25;;;2.85;;
19113;SDS011;9689;51.052;13.772;2023-08-24T16:47:46;6.85;;;3.20;;
19113;SDS011;9689;51.052;13.772;2023-08-24T16:52:48;3.90;;;2.50;;
19113;SDS011;9689;51.052;13.772;2023-08-24T16:57:49;7.88;;;2.78;;
19113;SDS011;9689;51.052;13.772;2023-08-24T17:02:51;18.45;;;3.30;;
19113;SDS011;9689;51.052;13.772;2023-08-24T17:08:03;5.13;;;3.10;;
19113;SDS011;9689;51.052;13.772;2023-08-24T17:13:06;7.88;;;2.83;;
19113;SDS011;9689;51.052;13.772;2023-08-24T17:18:06;5.72;;;2.70;;
19113;SDS011;9689;51.052;13.772;2023-08-24T17:23:08;10.45;;;3.22;;
19113;SDS011;9689;51.052;13.772;2023-08-24T17:28:09;7.00;;;2.70;;
19113;SDS011;9689;51.052;13.772;2023-08-24T17:33:10;6.65;;;3.15;;
19113;SDS011;9689;51.052;13.772;2023-08-24T17:38:13;8.20;;;3.10;;
19113;SDS011;9689;51.052;13.772;2023-08-24T17:43:13;6.63;;;2.72;;
19113;SDS011;9689;51.052;13.772;2023-08-24T17:48:14;7.47;;;3.03;;
19113;SDS011;9689;51.052;13.772;2023-08-24T17:53:16;11.30;;;3.70;;
19113;SDS011;9689;51.052;13.772;2023-08-24T17:58:17;8.80;;;3.30;;
19113;SDS011;9689;51.052;13.772;2023-08-24T18:03:18;8.38;;;3.70;;
19113;SDS011;9689;51.052;13.772;2023-08-24T18:08:20;7.90;;;3.53;;
19113;SDS011;9689;51.052;13.772;2023-08-24T18:13:22;12.70;;;4.60;;
19113;SDS011;9689;51.052;13.772;2023-08-24T18:18:23;6.50;;;3.75;;
19113;SDS011;9689;51.052;13.772;2023-08-24T18:23:25;13.23;;;5.80;;
19113;SDS011;9689;51.052;13.772;2023-08-24T18:28:26;8.32;;;4.53;;
19113;SDS011;9689;51.052;13.772;2023-08-24T18:33:27;14.32;;;5.45;;
19113;SDS011;9689;51.052;13.772;2023-08-24T18:38:29;7.30;;;4.03;;
19113;SDS011;9689;51.052;13.772;2023-08-24T18:43:30;6.88;;;3.85;;
19113;SDS011;9689;51.052;13.772;2023-08-24T18:48:31;8.18;;;3.95;;
19113;SDS011;9689;51.052;13.772;2023-08-24T18:53:33;6.88;;;3.72;;
19113;SDS011;9689;51.052;13.772;2023-08-24T18:58:34;7.80;;;4.35;;
19113;SDS011;9689;51.052;13.772;2023-08-24T19:03:34;7.50;;;4.32;;
19113;SDS011;9689;51.052;13.772;2023-08-24T19:08:36;13.00;;;4.93;;
19113;SDS011;9689;51.052;13.772;2023-08-24T19:13:37;12.38;;;4.15;;
19113;SDS011;9689;51.052;13.772;2023-08-24T19:18:38;9.00;;;3.83;;
19113;SDS011;9689;51.052;13.772;2023-08-24T19:23:41;9.65;;;4.65;;
19113;SDS011;9689;51.052;13.772;2023-08-24T19:28:42;6.63;;;4.43;;
19113;SDS011;9689;51.052;13.772;2023-08-24T19:33:44;7.82;;;3.88;;
19113;SDS011;9689;51.052;13.772;2023-08-24T19:38:47;8.27;;;3.72;;
19113;SDS011;9689;51.052;13.772;2023-08-24T19:43:48;8.05;;;3.65;;
19113;SDS011;9689;51.052;13.772;2023-08-24T19:48:48;12.93;;;4.03;;
19113;SDS011;9689;51.052;13.772;2023-08-24T19:53:50;10.18;;;3.78;;
19113;SDS011;9689;51.052;13.772;2023-08-24T19:58:51;12.35;;;4.35;;
19113;SDS011;9689;51.052;13.772;2023-08-24T20:03:53;6.75;;;4.10;;
19113;SDS011;9689;51.052;13.772;2023-08-24T20:08:56;9.68;;;4.13;;
19113;SDS011;9689;51.052;13.772;2023-08-24T20:13:56;11.02;;;4.15;;
19113;SDS011;9689;51.052;13.772;2023-08-24T20:18:58;7.72;;;3.53;;
19113;SDS011;9689;51.052;13.772;2023-08-24T20:24:01;12.13;;;3.58;;
19113;SDS011;9689;51.052;13.772;2023-08-24T20:29:03;7.45;;;3.70;;
19113;SDS011;9689;51.052;13.772;2023-08-24T20:34:04;10.82;;;3.60;;
19113;SDS011;9689;51.052;13.772;2023-08-24T20:39:06;5.13;;;3.15;;
19113;SDS011;9689;51.052;13.772;2023-08-24T20:44:09;6.10;;;3.30;;
19113;SDS011;9689;51.052;13.772;2023-08-24T20:49:09;6.75;;;3.05;;
19113;SDS011;9689;51.052;13.772;2023-08-24T20:54:12;6.18;;;3.70;;
19113;SDS011;9689;51.052;13.772;2023-08-24T20:59:13;8.45;;;3.53;;
19113;SDS011;9689;51.052;13.772;2023-08-24T21:04:13;6.43;;;3.55;;
19113;SDS011;9689;51.052;13.772;2023-08-24T21:09:15;8.68;;;3.40;;
19113;SDS011;9689;51.052;13.772;2023-08-24T21:14:16;7.22;;;3.05;;
19113;SDS011;9689;51.052;13.772;2023-08-24T21:19:17;6.32;;;3.17;;
19113;SDS011;9689;51.052;13.772;2023-08-24T21:24:19;7.22;;;3.10;;
19113;SDS011;9689;51.052;13.772;2023-08-24T21:29:20;6.93;;;3.50;;
19113;SDS011;9689;51.052;13.772;2023-08-24T21:34:21;6.13;;;3.30;;
19113;SDS011;9689;51.052;13.772;2023-08-24T21:39:23;4.68;;;3.22;;
19113;SDS011;9689;51.052;13.772;2023-08-24T21:44:24;7.63;;;3.50;;
19113;SDS011;9689;51.052;13.772;2023-08-24T21:49:25;6.40;;;3.42;;
19113;SDS011;9689;51.052;13.772;2023-08-24T21:54:27;7.82;;;3.50;;
19113;SDS011;9689;51.052;13.772;2023-08-24T21:59:28;12.48;;;3.63;;
19113;SDS011;9689;51.052;13.772;2023-08-24T22:04:29;8.27;;;3.83;;
19113;SDS011;9689;51.052;13.772;2023-08-24T22:09:31;8.38;;;4.25;;
19113;SDS011;9689;51.052;13.772;2023-08-24T22:14:32;8.77;;;4.03;;
19113;SDS011;9689;51.052;13.772;2023-08-24T22:19:33;6.03;;;3.58;;
19113;SDS011;9689;51.052;13.772;2023-08-24T22:24:35;6.10;;;3.88;;
19113;SDS011;9689;51.052;13.772;2023-08-24T22:29:36;6.20;;;3.63;;
19113;SDS011;9689;51.052;13.772;2023-08-24T22:34:36;4.45;;;3.20;;
19113;SDS011;9689;51.052;13.772;2023-08-24T22:39:39;8.50;;;3.17;;
19113;SDS011;9689;51.052;13.772;2023-08-24T22:44:40;10.95;;;3.92;;
19113;SDS011;9689;51.052;13.772;2023-08-24T22:49:41;6.25;;;3.45;;
19113;SDS011;9689;51.052;13.772;2023-08-24T22:54:43;4.50;;;3.13;;
19113;SDS011;9689;51.052;13.772;2023-08-24T22:59:44;5.88;;;3.75;;
19113;SDS011;9689;51.052;13.772;2023-08-24T23:04:45;5.95;;;3.38;;
19113;SDS011;9689;51.052;13.772;2023-08-24T23:09:47;5.40;;;3.33;;
19113;SDS011;9689;51.052;13.772;2023-08-24T23:14:48;7.28;;;3.58;;
19113;SDS011;9689;51.052;13.772;2023-08-24T23:19:49;6.75;;;4.18;;
19113;SDS011;9689;51.052;13.772;2023-08-24T23:24:51;5.63;;;4.03;;
19113;SDS011;9689;51.052;13.772;2023-08-24T23:29:51;10.38;;;4.20;;
19113;SDS011;9689;51.052;13.772;2023-08-24T23:34:56;12.77;;;3.50;;
19113;SDS011;9689;51.052;13.772;2023-08-24T23:39:58;11.20;;;3.83;;
19113;SDS011;9689;51.052;13.772;2023-08-24T23:44:58;8.05;;;3.75;;
19113;SDS011;9689;51.052;13.772;2023-08-24T23:49:59;7.43;;;3.85;;
19113;SDS011;9689;51.052;13.772;2023-08-24T23:55:04;9.32;;;4.00;;
